createdAt,value
2023-09-06T00:01:30.650Z,16.60
2023-09-06T00:03:57.289Z,16.64
2023-09-06T00:06:23.985Z,16.66
2023-09-06T00:08:51.911Z,16.72
2023-09-06T00:11:18.340Z,16.65
2023-09-06T00:13:44.676Z,16.52
2023-09-06T00:16:11.001Z,16.47
2023-09-06T00:18:38.550Z,16.30
2023-09-06T00:21:06.905Z,16.17
2023-09-06T00:23:33.959Z,16.11
2023-09-06T00:26:00.517Z,15.99
2023-09-06T00:28:27.798Z,15.87
2023-09-06T00:30:58.868Z,15.81
2023-09-06T00:33:34.106Z,15.72
2023-09-06T00:36:02.236Z,15.66
2023-09-06T00:38:30.223Z,15.68
2023-09-06T00:40:56.829Z,15.61
2023-09-06T00:43:23.268Z,15.57
2023-09-06T00:45:51.836Z,15.58
2023-09-06T00:48:30.654Z,15.60
2023-09-06T00:50:58.337Z,15.55
2023-09-06T00:53:26.424Z,15.52
2023-09-06T00:55:53.262Z,15.48
2023-09-06T00:58:21.407Z,15.46
2023-09-06T01:00:51.299Z,15.48
2023-09-06T01:03:18.533Z,15.47
2023-09-06T01:05:53.257Z,15.41
2023-09-06T01:08:29.972Z,15.38
2023-09-06T01:11:12.207Z,15.22
2023-09-06T01:13:38.595Z,15.18
2023-09-06T01:16:05.268Z,15.05
2023-09-06T01:18:32.135Z,14.99
2023-09-06T01:21:07.695Z,14.94
2023-09-06T01:23:35.798Z,14.92
2023-09-06T01:26:03.511Z,15.00
2023-09-06T01:28:30.410Z,15.03
2023-09-06T01:30:57.792Z,14.95
2023-09-06T01:33:24.315Z,14.82
2023-09-06T01:35:51.736Z,14.74
2023-09-06T01:38:18.669Z,14.65
2023-09-06T01:40:45.688Z,14.56
2023-09-06T01:43:12.755Z,14.59
2023-09-06T01:45:45.923Z,14.57
2023-09-06T01:48:12.766Z,14.57
2023-09-06T01:50:39.115Z,14.51
2023-09-06T01:53:05.488Z,14.48
2023-09-06T01:55:31.886Z,14.55
2023-09-06T01:57:58.274Z,14.53
2023-09-06T02:00:33.365Z,14.51
2023-09-06T02:03:00.893Z,14.44
2023-09-06T02:05:27.416Z,14.45
2023-09-06T02:07:53.750Z,14.38
2023-09-06T02:10:20.183Z,14.37
2023-09-06T02:12:46.688Z,14.41
2023-09-06T02:15:16.298Z,14.34
2023-09-06T02:17:44.158Z,14.32
2023-09-06T02:20:25.653Z,14.28
2023-09-06T02:22:57.338Z,14.26
2023-09-06T02:25:31.786Z,14.35
2023-09-06T02:27:59.330Z,14.29
2023-09-06T02:30:26.080Z,14.20
2023-09-06T02:32:53.359Z,14.16
2023-09-06T02:35:20.023Z,14.07
2023-09-06T02:37:46.416Z,14.13
2023-09-06T02:40:18.138Z,14.03
2023-09-06T02:42:45.386Z,14.06
2023-09-06T02:45:12.774Z,14.09
2023-09-06T02:47:49.046Z,14.13
2023-09-06T02:50:17.973Z,14.23
2023-09-06T02:52:47.776Z,14.23
2023-09-06T02:55:14.746Z,14.21
2023-09-06T02:57:42.687Z,14.11
2023-09-06T03:00:30.759Z,14.04
2023-09-06T03:03:07.935Z,13.97
2023-09-06T03:05:44.885Z,13.95
2023-09-06T03:08:15.770Z,13.99
2023-09-06T03:10:43.604Z,14.04
2023-09-06T03:13:12.866Z,13.94
2023-09-06T03:15:44.561Z,13.85
2023-09-06T03:18:11.404Z,13.75
2023-09-06T03:20:46.819Z,13.65
2023-09-06T03:23:18.608Z,13.62
2023-09-06T03:25:46.748Z,13.55
2023-09-06T03:28:13.464Z,13.50
2023-09-06T03:30:40.080Z,13.53
2023-09-06T03:33:07.398Z,13.49
2023-09-06T03:35:34.257Z,13.57
2023-09-06T03:38:01.181Z,13.56
2023-09-06T03:40:35.903Z,13.55
2023-09-06T03:43:06.898Z,13.53
2023-09-06T03:45:35.224Z,13.46
2023-09-06T03:48:01.884Z,13.42
2023-09-06T03:50:31.172Z,13.37
2023-09-06T03:52:58.380Z,13.34
2023-09-06T03:55:25.646Z,13.32
2023-09-06T03:57:53.510Z,13.25
2023-09-06T04:00:27.655Z,13.26
2023-09-06T04:03:01.068Z,13.21
2023-09-06T04:05:28.252Z,13.16
2023-09-06T04:07:57.362Z,13.12
2023-09-06T04:10:25.731Z,13.09
2023-09-06T04:12:54.558Z,13.12
2023-09-06T04:15:22.530Z,13.12
2023-09-06T04:17:58.622Z,13.09
2023-09-06T04:20:32.256Z,13.10
2023-09-06T04:23:05.181Z,13.05
2023-09-06T04:25:35.508Z,13.11
2023-09-06T04:28:02.626Z,13.10
2023-09-06T04:30:29.956Z,13.18
2023-09-06T04:32:58.818Z,13.16
2023-09-06T04:35:34.757Z,13.27
2023-09-06T04:38:03.745Z,13.34
2023-09-06T04:40:30.462Z,13.33
2023-09-06T04:42:57.051Z,13.27
2023-09-06T04:45:23.526Z,13.31
2023-09-06T04:47:50.266Z,13.36
2023-09-06T04:50:16.825Z,13.31
2023-09-06T04:52:48.552Z,13.27
2023-09-06T04:55:15.938Z,13.19
2023-09-06T04:57:42.671Z,13.09
2023-09-06T05:00:18.564Z,13.04
2023-09-06T05:02:47.023Z,12.99
2023-09-06T05:05:16.829Z,12.96
2023-09-06T05:07:43.236Z,12.89
2023-09-06T05:10:12.844Z,13.00
2023-09-06T05:12:40.028Z,13.04
2023-09-06T05:15:07.631Z,13.08
2023-09-06T05:17:34.228Z,13.03
2023-09-06T05:20:28.848Z,13.15
2023-09-06T05:22:57.185Z,13.29
2023-09-06T05:25:23.696Z,13.31
2023-09-06T05:27:50.680Z,13.27
2023-09-06T05:30:17.281Z,13.24
2023-09-06T05:32:44.302Z,13.22
2023-09-06T05:35:11.644Z,13.24
2023-09-06T05:37:39.205Z,13.28
2023-09-06T05:40:07.097Z,13.32
2023-09-06T05:42:33.604Z,13.38
2023-09-06T05:45:00.128Z,13.41
2023-09-06T05:47:26.745Z,13.45
2023-09-06T05:49:56.822Z,13.51
2023-09-06T05:52:23.754Z,13.61
2023-09-06T05:54:51.023Z,13.85
2023-09-06T05:57:19.540Z,14.01
2023-09-06T05:59:46.047Z,14.25
2023-09-06T06:02:13.138Z,14.32
2023-09-06T06:04:40.932Z,14.32
2023-09-06T06:07:07.600Z,14.39
2023-09-06T06:09:34.918Z,14.47
2023-09-06T06:12:04.685Z,14.59
2023-09-06T06:14:31.393Z,14.76
2023-09-06T06:16:58.521Z,14.96
2023-09-06T06:19:25.103Z,15.00
2023-09-06T06:21:51.758Z,15.17
2023-09-06T06:24:18.587Z,15.27
2023-09-06T06:26:44.976Z,15.32
2023-09-06T06:29:11.474Z,15.41
2023-09-06T06:31:38.147Z,15.45
2023-09-06T06:34:04.985Z,15.50
2023-09-06T06:36:32.604Z,15.56
2023-09-06T06:38:59.512Z,15.64
2023-09-06T06:41:27.068Z,15.74
2023-09-06T06:43:53.911Z,15.85
2023-09-06T06:46:31.619Z,15.94
2023-09-06T06:48:58.240Z,16.13
2023-09-06T06:51:30.040Z,16.17
2023-09-06T06:53:56.430Z,16.25
2023-09-06T06:56:22.964Z,16.49
2023-09-06T06:58:49.782Z,16.54
2023-09-06T07:01:16.451Z,16.72
2023-09-06T07:03:43.000Z,16.84
2023-09-06T07:06:09.652Z,16.94
2023-09-06T07:08:39.252Z,17.65
2023-09-06T07:11:06.163Z,19.66
2023-09-06T07:13:32.620Z,21.13
2023-09-06T07:15:59.917Z,22.31
2023-09-06T07:18:26.531Z,23.21
2023-09-06T07:23:49.563Z,24.18
2023-09-06T07:26:18.119Z,24.33
2023-09-06T07:28:46.648Z,24.33
2023-09-06T07:31:14.097Z,24.26
2023-09-06T07:33:41.016Z,24.00
2023-09-06T07:36:08.139Z,23.81
2023-09-06T07:38:34.993Z,23.18
2023-09-06T07:41:04.482Z,22.76
2023-09-06T07:43:31.601Z,22.36
2023-09-06T07:46:01.555Z,22.03
2023-09-06T07:48:30.836Z,21.95
2023-09-06T07:50:59.177Z,21.99
2023-09-06T07:53:27.084Z,22.05
2023-09-06T07:55:54.313Z,22.01
2023-09-06T07:58:21.322Z,22.02
2023-09-06T08:00:53.924Z,22.07
2023-09-06T08:03:27.293Z,22.15
2023-09-06T08:05:55.425Z,22.27
2023-09-06T08:08:21.852Z,22.37
2023-09-06T08:10:48.402Z,22.41
2023-09-06T08:13:14.755Z,22.47
2023-09-06T08:15:41.203Z,22.64
2023-09-06T08:18:09.539Z,22.73
2023-09-06T08:20:36.220Z,22.72
2023-09-06T08:23:02.849Z,22.79
2023-09-06T08:25:29.453Z,22.85
2023-09-06T08:27:55.852Z,22.98
2023-09-06T08:30:23.435Z,23.01
2023-09-06T08:32:52.118Z,22.98
2023-09-06T08:35:19.062Z,22.98
2023-09-06T08:37:48.362Z,22.99
2023-09-06T08:40:16.843Z,22.85
2023-09-06T08:42:45.185Z,22.88
2023-09-06T08:45:12.336Z,22.99
2023-09-06T08:47:42.988Z,23.17
2023-09-06T08:50:10.938Z,23.34
2023-09-06T08:52:42.246Z,23.52
2023-09-06T08:55:11.270Z,23.47
2023-09-06T08:57:42.858Z,23.44
2023-09-06T09:00:11.181Z,23.41
2023-09-06T09:02:38.695Z,23.44
2023-09-06T09:05:19.701Z,23.42
2023-09-06T09:07:59.171Z,23.52
2023-09-06T09:10:29.848Z,23.67
2023-09-06T09:12:57.830Z,23.93
2023-09-06T09:15:27.212Z,24.15
2023-09-06T09:18:00.999Z,24.34
2023-09-06T09:20:29.210Z,24.41
2023-09-06T09:23:02.756Z,24.44
2023-09-06T09:25:30.144Z,24.47
2023-09-06T09:28:00.077Z,24.42
2023-09-06T09:30:29.701Z,24.43
2023-09-06T09:33:02.704Z,24.57
2023-09-06T09:35:34.012Z,24.69
2023-09-06T09:38:02.649Z,24.74
2023-09-06T09:43:05.742Z,25.09
2023-09-06T09:45:44.942Z,25.15
2023-09-06T09:48:12.157Z,25.09
2023-09-06T09:50:42.294Z,25.08
2023-09-06T09:53:20.354Z,25.18
2023-09-06T09:55:49.037Z,25.25
2023-09-06T09:58:18.190Z,25.22
2023-09-06T10:00:44.676Z,25.25
2023-09-06T10:03:11.778Z,25.28
2023-09-06T10:05:39.031Z,25.12
2023-09-06T10:08:08.332Z,25.12
2023-09-06T10:10:38.276Z,25.32
2023-09-06T10:13:08.795Z,25.51
2023-09-06T10:15:40.895Z,25.68
2023-09-06T10:18:08.605Z,25.64
2023-09-06T10:20:38.340Z,25.69
2023-09-06T10:23:06.899Z,25.69
2023-09-06T10:25:38.566Z,25.70
2023-09-06T10:28:05.329Z,25.87
2023-09-06T10:30:48.861Z,26.01
2023-09-06T10:33:37.163Z,26.02
2023-09-06T10:36:13.320Z,26.19
2023-09-06T10:38:52.296Z,26.41
2023-09-06T10:41:20.066Z,26.32
2023-09-06T10:43:59.788Z,26.41
2023-09-06T10:46:34.502Z,26.55
2023-09-06T10:49:13.411Z,26.35
2023-09-06T10:52:04.283Z,26.53
2023-09-06T10:54:46.212Z,26.70
2023-09-06T10:57:16.424Z,26.87
2023-09-06T10:59:56.494Z,27.06
2023-09-06T11:02:23.392Z,27.25
2023-09-06T11:05:03.589Z,27.23
2023-09-06T11:07:49.241Z,27.06
2023-09-06T11:10:23.010Z,27.22
2023-09-06T11:12:49.454Z,26.97
2023-09-06T11:15:16.051Z,26.98
2023-09-06T11:17:43.542Z,27.14
2023-09-06T11:20:14.024Z,27.17
2023-09-06T11:22:59.421Z,27.22
2023-09-06T11:25:27.695Z,27.40
2023-09-06T11:27:59.379Z,27.30
2023-09-06T11:30:27.744Z,27.55
2023-09-06T11:32:56.415Z,27.86
2023-09-06T11:35:35.474Z,28.08
2023-09-06T11:38:04.095Z,28.11
2023-09-06T11:40:33.439Z,28.27
2023-09-06T11:43:06.274Z,28.24
2023-09-06T11:45:34.030Z,27.93
2023-09-06T11:48:05.941Z,27.78
2023-09-06T11:50:33.715Z,27.77
2023-09-06T11:53:05.620Z,27.97
2023-09-06T11:55:35.528Z,28.15
2023-09-06T11:58:02.062Z,28.28
2023-09-06T12:00:46.928Z,28.45
2023-09-06T12:03:17.675Z,28.54
2023-09-06T12:05:49.933Z,28.78
2023-09-06T12:08:22.922Z,28.91
2023-09-06T12:10:54.136Z,28.65
2023-09-06T12:13:47.566Z,28.56
2023-09-06T12:16:14.322Z,28.55
2023-09-06T12:18:41.096Z,28.69
2023-09-06T12:21:07.710Z,28.60
2023-09-06T12:23:38.009Z,28.70
2023-09-06T12:26:05.975Z,28.76
2023-09-06T12:28:33.394Z,28.63
2023-09-06T12:31:07.777Z,28.64
2023-09-06T12:33:39.199Z,28.83
2023-09-06T12:36:06.977Z,29.06
2023-09-06T12:38:33.667Z,29.29
2023-09-06T12:41:01.323Z,29.36
2023-09-06T12:43:27.730Z,29.47
2023-09-06T12:45:54.980Z,29.65
2023-09-06T12:48:22.763Z,29.89
2023-09-06T12:50:49.847Z,29.95
2023-09-06T12:53:17.221Z,29.99
2023-09-06T12:55:44.552Z,29.82
2023-09-06T12:58:11.003Z,29.82
2023-09-06T13:00:37.787Z,29.78
2023-09-06T13:03:04.312Z,29.66
2023-09-06T13:05:32.683Z,29.78
2023-09-06T13:08:02.874Z,29.94
2023-09-06T13:10:32.527Z,30.03
2023-09-06T13:12:59.277Z,29.94
2023-09-06T13:15:25.624Z,29.89
2023-09-06T13:17:52.040Z,29.52
2023-09-06T13:20:18.860Z,29.54
2023-09-06T13:22:47.850Z,29.66
2023-09-06T13:25:14.577Z,29.83
2023-09-06T13:27:42.765Z,29.85
2023-09-06T13:30:09.757Z,29.91
2023-09-06T13:32:36.384Z,29.86
2023-09-06T13:35:03.676Z,29.98
2023-09-06T13:37:30.796Z,30.08
2023-09-06T13:39:58.274Z,30.16
2023-09-06T13:42:24.973Z,30.12
2023-09-06T13:44:51.521Z,29.80
2023-09-06T13:47:18.542Z,29.82
2023-09-06T13:49:44.937Z,30.05
2023-09-06T13:52:12.868Z,30.14
2023-09-06T13:54:41.260Z,30.27
2023-09-06T13:57:08.344Z,30.44
2023-09-06T13:59:34.928Z,30.41
2023-09-06T14:02:01.507Z,30.39
2023-09-06T14:04:28.096Z,30.44
2023-09-06T14:06:55.577Z,30.35
2023-09-06T14:09:23.733Z,30.16
2023-09-06T14:11:50.773Z,30.22
2023-09-06T14:14:18.819Z,30.27
2023-09-06T14:16:46.078Z,30.28
2023-09-06T14:19:12.773Z,30.40
2023-09-06T14:21:46.414Z,30.35
2023-09-06T14:24:14.687Z,30.43
2023-09-06T14:26:44.029Z,30.51
2023-09-06T14:29:12.962Z,30.61
2023-09-06T14:31:40.061Z,30.64
2023-09-06T14:34:06.531Z,30.56
2023-09-06T14:36:33.230Z,30.61
2023-09-06T14:39:00.044Z,30.57
2023-09-06T14:41:26.484Z,30.58
2023-09-06T14:43:53.144Z,30.58
2023-09-06T14:46:19.934Z,30.69
2023-09-06T14:48:47.148Z,30.73
2023-09-06T14:51:13.643Z,30.64
2023-09-06T14:53:40.021Z,30.68
2023-09-06T14:56:08.000Z,30.59
2023-09-06T14:58:34.657Z,30.45
2023-09-06T15:01:01.971Z,30.55
2023-09-06T15:03:28.864Z,30.54
2023-09-06T15:05:55.424Z,30.52
2023-09-06T15:08:21.784Z,30.47
2023-09-06T15:10:48.357Z,30.46
2023-09-06T15:13:14.781Z,30.40
2023-09-06T15:15:43.373Z,30.27
2023-09-06T15:18:10.377Z,30.20
2023-09-06T15:20:37.338Z,30.25
2023-09-06T15:23:04.123Z,30.28
2023-09-06T15:25:30.992Z,30.28
2023-09-06T15:27:57.374Z,30.21
2023-09-06T15:30:23.940Z,30.10
2023-09-06T15:32:50.564Z,30.01
2023-09-06T15:35:17.730Z,29.98
2023-09-06T15:37:58.183Z,30.00
2023-09-06T15:40:25.113Z,29.92
2023-09-06T15:42:51.575Z,29.74
2023-09-06T15:45:18.019Z,29.64
2023-09-06T15:47:46.685Z,29.63
2023-09-06T15:50:20.916Z,29.60
2023-09-06T15:52:48.754Z,29.59
2023-09-06T15:55:16.009Z,29.40
2023-09-06T15:57:43.506Z,29.38
2023-09-06T16:00:24.286Z,29.35
2023-09-06T16:02:57.428Z,29.37
2023-09-06T16:05:23.994Z,29.27
2023-09-06T16:07:50.446Z,29.18
2023-09-06T16:10:16.792Z,29.10
2023-09-06T16:12:44.874Z,29.00
2023-09-06T16:15:13.113Z,29.04
2023-09-06T16:17:39.681Z,29.03
2023-09-06T16:20:06.792Z,29.02
2023-09-06T16:22:33.196Z,28.95
2023-09-06T16:25:01.722Z,28.82
2023-09-06T16:27:28.046Z,28.77
2023-09-06T16:29:54.615Z,28.73
2023-09-06T16:32:21.125Z,28.68
2023-09-06T16:34:47.622Z,28.62
2023-09-06T16:37:14.024Z,28.57
2023-09-06T16:39:44.519Z,28.52
2023-09-06T16:42:11.056Z,28.46
2023-09-06T16:44:39.030Z,28.44
2023-09-06T16:47:06.023Z,28.38
2023-09-06T16:49:32.878Z,28.32
2023-09-06T16:51:59.397Z,28.27
2023-09-06T16:54:26.008Z,28.19
2023-09-06T16:56:52.334Z,28.11
2023-09-06T16:59:18.712Z,28.05
2023-09-06T17:01:45.236Z,27.97
2023-09-06T17:04:11.711Z,27.87
2023-09-06T17:06:38.278Z,27.70
2023-09-06T17:09:09.549Z,27.58
2023-09-06T17:11:41.344Z,27.41
2023-09-06T17:14:08.354Z,27.23
2023-09-06T17:16:34.991Z,27.07
2023-09-06T17:19:16.723Z,26.84
2023-09-06T17:21:43.128Z,26.71
2023-09-06T17:24:10.008Z,26.63
2023-09-06T17:26:42.561Z,26.54
2023-09-06T17:29:15.315Z,26.42
2023-09-06T17:31:43.100Z,26.28
2023-09-06T17:34:12.855Z,26.14
2023-09-06T17:36:39.869Z,25.96
2023-09-06T17:39:09.128Z,25.75
2023-09-06T17:41:36.853Z,25.57
2023-09-06T17:44:06.844Z,25.39
2023-09-06T17:46:36.634Z,25.26
2023-09-06T17:49:06.992Z,25.05
2023-09-06T17:51:35.283Z,24.88
2023-09-06T17:54:04.408Z,24.71
2023-09-06T17:56:30.883Z,24.63
2023-09-06T17:58:57.812Z,24.48
2023-09-06T18:01:24.875Z,24.31
2023-09-06T18:03:58.837Z,24.21
2023-09-06T18:06:26.929Z,24.21
2023-09-06T18:08:59.202Z,24.15
2023-09-06T18:11:26.082Z,24.06
2023-09-06T18:13:53.167Z,24.00
2023-09-06T18:16:19.748Z,23.96
2023-09-06T18:18:46.466Z,23.88
2023-09-06T18:21:14.718Z,23.71
2023-09-06T18:23:42.160Z,23.62
2023-09-06T18:26:11.741Z,23.53
2023-09-06T18:28:38.289Z,23.34
2023-09-06T18:31:05.266Z,23.26
2023-09-06T18:33:31.738Z,23.11
2023-09-06T18:35:58.151Z,22.98
2023-09-06T18:38:25.093Z,22.90
2023-09-06T18:40:55.339Z,22.70
2023-09-06T18:43:23.343Z,22.56
2023-09-06T18:45:50.945Z,22.50
2023-09-06T18:48:20.389Z,22.38
2023-09-06T18:50:48.011Z,22.29
2023-09-06T18:53:14.841Z,22.15
2023-09-06T18:55:44.296Z,22.07
2023-09-06T18:58:11.999Z,21.92
2023-09-06T19:00:39.927Z,21.80
2023-09-06T19:03:12.312Z,21.68
2023-09-06T19:05:40.060Z,21.56
2023-09-06T19:08:12.543Z,21.41
2023-09-06T19:10:41.056Z,21.20
2023-09-06T19:13:08.357Z,21.06
2023-09-06T19:15:35.149Z,20.89
2023-09-06T19:18:03.443Z,20.75
2023-09-06T19:20:29.932Z,20.57
2023-09-06T19:22:56.395Z,20.43
2023-09-06T19:25:26.412Z,20.32
2023-09-06T19:27:53.330Z,20.25
2023-09-06T19:30:20.135Z,20.07
2023-09-06T19:32:46.636Z,20.05
2023-09-06T19:35:14.132Z,20.13
2023-09-06T19:37:40.536Z,20.27
2023-09-06T19:40:08.150Z,20.26
2023-09-06T19:42:34.941Z,20.22
2023-09-06T19:45:02.301Z,20.13
2023-09-06T19:47:28.853Z,20.00
2023-09-06T19:49:56.849Z,19.91
2023-09-06T19:52:23.328Z,19.91
2023-09-06T19:54:49.729Z,19.91
2023-09-06T19:57:16.776Z,19.82
2023-09-06T19:59:43.151Z,19.75
2023-09-06T20:02:09.607Z,19.63
2023-09-06T20:04:36.389Z,19.52
2023-09-06T20:07:05.174Z,19.39
2023-09-06T20:09:31.951Z,19.22
2023-09-06T20:11:58.586Z,19.08
2023-09-06T20:14:28.639Z,18.95
2023-09-06T20:16:56.694Z,18.84
2023-09-06T20:19:23.559Z,18.73
2023-09-06T20:21:50.044Z,18.63
2023-09-06T20:24:17.646Z,18.57
2023-09-06T20:26:44.289Z,18.49
2023-09-06T20:29:11.024Z,18.39
2023-09-06T20:31:38.038Z,18.32
2023-09-06T20:34:05.067Z,18.27
2023-09-06T20:36:32.838Z,18.20
2023-09-06T20:38:59.297Z,18.16
2023-09-06T20:41:25.797Z,18.11
2023-09-06T20:43:52.194Z,18.06
2023-09-06T20:46:18.672Z,18.01
2023-09-06T20:48:47.078Z,17.98
2023-09-06T20:51:15.368Z,17.95
2023-09-06T20:53:44.253Z,17.91
2023-09-06T20:56:11.260Z,17.87
2023-09-06T20:58:37.687Z,17.87
2023-09-06T21:01:14.970Z,17.86
2023-09-06T21:03:42.099Z,17.88
2023-09-06T21:06:08.761Z,17.87
2023-09-06T21:08:35.342Z,17.84
2023-09-06T21:11:02.616Z,17.78
2023-09-06T21:13:29.073Z,17.76
2023-09-06T21:15:57.127Z,17.70
2023-09-06T21:18:24.598Z,17.65
2023-09-06T21:20:51.212Z,17.62
2023-09-06T21:23:17.635Z,17.54
2023-09-06T21:25:44.252Z,17.46
2023-09-06T21:28:10.783Z,17.39
2023-09-06T21:30:42.181Z,17.33
2023-09-06T21:33:09.885Z,17.27
2023-09-06T21:35:41.704Z,17.22
2023-09-06T21:38:08.844Z,17.26
2023-09-06T21:40:43.282Z,17.21
2023-09-06T21:43:19.232Z,17.17
2023-09-06T21:45:46.693Z,17.11
2023-09-06T21:48:13.430Z,17.04
2023-09-06T21:50:41.852Z,16.99
2023-09-06T21:53:08.508Z,16.97
2023-09-06T21:55:35.086Z,16.90
2023-09-06T21:58:09.509Z,16.84
2023-09-06T22:00:37.187Z,16.82
2023-09-06T22:03:03.829Z,16.77
2023-09-06T22:05:30.229Z,16.73
2023-09-06T22:07:56.628Z,16.67
2023-09-06T22:10:23.093Z,16.65
2023-09-06T22:12:49.732Z,16.62
2023-09-06T22:15:16.294Z,16.60
2023-09-06T22:17:43.274Z,16.71
2023-09-06T22:20:10.229Z,16.84
2023-09-06T22:22:37.011Z,16.83
2023-09-06T22:25:05.561Z,16.81
2023-09-06T22:27:31.929Z,16.76
2023-09-06T22:29:58.318Z,16.67
2023-09-06T22:32:24.801Z,16.63
2023-09-06T22:34:51.159Z,16.53
2023-09-06T22:37:17.516Z,16.44
2023-09-06T22:39:44.147Z,16.43
2023-09-06T22:42:12.023Z,16.40
2023-09-06T22:44:38.514Z,16.33
2023-09-06T22:47:05.014Z,16.27
2023-09-06T22:49:31.457Z,16.22
2023-09-06T22:51:58.049Z,16.16
2023-09-06T22:54:24.473Z,16.10
2023-09-06T22:56:50.932Z,16.05
2023-09-06T22:59:17.434Z,16.01
2023-09-06T23:01:43.962Z,15.96
2023-09-06T23:04:11.644Z,15.91
2023-09-06T23:06:38.309Z,15.83
2023-09-06T23:09:07.951Z,15.89
2023-09-06T23:11:35.505Z,15.96
2023-09-06T23:14:06.373Z,15.99
2023-09-06T23:16:34.784Z,15.96
2023-09-06T23:19:03.185Z,15.89
2023-09-06T23:21:38.766Z,15.78
2023-09-06T23:24:12.564Z,15.68
2023-09-06T23:26:40.048Z,15.58
2023-09-06T23:29:08.327Z,15.54
2023-09-06T23:31:40.061Z,15.50
2023-09-06T23:34:15.621Z,15.47
2023-09-06T23:36:42.082Z,15.48
2023-09-06T23:39:12.522Z,15.44
2023-09-06T23:41:41.356Z,15.38
2023-09-06T23:44:09.479Z,15.34
2023-09-06T23:46:36.241Z,15.33
2023-09-06T23:49:03.043Z,15.30
2023-09-06T23:51:30.775Z,15.30
2023-09-06T23:53:57.101Z,15.28
2023-09-06T23:56:23.497Z,15.29
2023-09-06T23:58:49.896Z,15.25
